Informes METAR cercanos


LEVC - Manises, Valencia, ESPAÑA
Distance from station: NNE 72km
Actualización: 31/05/2024 00:30
Despejado
Despejado
 Viento del E
Viento: E 6 km/h
Temperatura: 22°C
Rocío: 16°C
Humedad: 69%
Barómetro: 1011 hPa
Resumen: Despejado
Visibility: Mas de 10 km
2024/05/30 22:30 LEVC 302230Z 10003KT CAVOK 22/16 Q1011 NOSIG
LEAL - El Altet, Alicante, ESPAÑA
Distance from station: S 70km
Actualización: 31/05/2024 00:30
Despejado
Despejado
 Viento del NE
Viento: NE 7 km/h
Temperatura: 21°C
Rocío: 20°C
Humedad: 94%
Barómetro: 1010 hPa
Resumen: Despejado
Visibility: Mas de 10 km
2024/05/30 22:30 LEAL 302230Z 05004KT CAVOK 21/20 Q1010 NOSIG
 
LELC - San Javier, Murcia, ESPAÑA
Distance from station: SSO 188km
Actualización: 31/05/2024 00:30
Despejado
Despejado
 Viento del ENE
Viento: ENE 6 km/h
Temperatura: 21°C
Rocío: 19°C
Humedad: 88%
Barómetro: 1009 hPa
Resumen: Despejado
Visibility: Mas de 10 km
2024/05/30 22:30 LELC 302230Z AUTO 06003KT CAVOK 21/19 Q1009
LEAB - Los Llanos, Albacete, ESPAÑA
Distance from station: O 143km
Actualización: 31/05/2024 00:30
Despejado
Despejado
 Viento del ENE
Viento: ENE 15 km/h
Temperatura: 24°C
Rocío: 7°C
Humedad: 34%
Barómetro: 1012 hPa
Resumen: Despejado
Visibility: Mas de 10 km
2024/05/30 22:30 LEAB 302230Z 07008KT 040V100 CAVOK 24/07 Q1012 NOSIG